Time;durP1;ratioP1;P1;durP2;ratioP2;P2;SDS_P1;SDS_P2;PMS_P1;PMS_P2;Temp;Humidity;BMP_temperature;BMP_pressure;BME280_temperature;BME280_humidity;BME280_pressure;Samples;Min_cycle;Max_cycle;Signal;HPM_P1;HPM_P2
2022/03/08 00:00:32;;;;;;;4.97;3.27;;;;;;;;;;4510515;28;20132;-59
2022/03/08 00:02:42;;;;;;;3.53;3.10;;;;;;;;;;4524377;28;20040;-59
2022/03/08 00:04:53;;;;;;;5.10;3.70;;;;;;;;;;4509247;28;28315;-59
2022/03/08 00:07:03;;;;;;;4.73;3.27;;;;;;;;;;4510158;28;20033;-59
2022/03/08 00:09:14;;;;;;;5.10;3.63;;;;;;;;;;4506528;28;20483;-59
2022/03/08 00:11:24;;;;;;;4.77;3.30;;;;;;;;;;4510548;28;20030;-58
2022/03/08 00:13:35;;;;;;;3.43;2.60;;;;;;;;;;4509126;28;20504;-58
2022/03/08 00:15:45;;;;;;;4.23;3.10;;;;;;;;;;4507395;28;25622;-58
2022/03/08 00:17:56;;;;;;;5.70;3.60;;;;;;;;;;4493988;28;20042;-58
2022/03/08 00:20:08;;;;;;;3.60;2.87;;;;;;;;;;4495502;28;20130;-58
2022/03/08 00:22:18;;;;;;;4.60;3.30;;;;;;;;;;4509155;28;20214;-58
2022/03/08 00:24:29;;;;;;;4.87;3.07;;;;;;;;;;4493809;28;20029;-59
2022/03/08 00:26:39;;;;;;;3.57;3.10;;;;;;;;;;4508738;28;20064;-58
2022/03/08 00:28:50;;;;;;;3.57;2.53;;;;;;;;;;4506793;28;20084;-58
2022/03/08 00:31:07;;;;;;;3.70;3.20;;;;;;;;;;4506611;28;20986;-58
2022/03/08 00:33:19;;;;;;;5.43;3.50;;;;;;;;;;4507508;28;20079;-58
2022/03/08 00:35:30;;;;;;;4.43;3.10;;;;;;;;;;4509912;28;20078;-58
2022/03/08 00:37:40;;;;;;;4.80;3.70;;;;;;;;;;4489833;28;20112;-58
2022/03/08 00:39:51;;;;;;;3.93;3.03;;;;;;;;;;4491923;28;20036;-58
2022/03/08 00:42:01;;;;;;;5.33;3.33;;;;;;;;;;4509585;28;20029;-58
2022/03/08 00:44:12;;;;;;;4.93;3.37;;;;;;;;;;4507499;28;20026;-58
2022/03/08 00:46:22;;;;;;;3.90;2.97;;;;;;;;;;4508281;28;20034;-58
2022/03/08 00:48:33;;;;;;;4.60;3.30;;;;;;;;;;4494024;28;20063;-58
2022/03/08 00:50:44;;;;;;;4.27;3.50;;;;;;;;;;4508216;28;20030;-58
2022/03/08 00:52:58;;;;;;;4.50;3.10;;;;;;;;;;4506344;28;20030;-58
2022/03/08 00:55:09;;;;;;;4.30;3.20;;;;;;;;;;4507648;28;20030;-58
2022/03/08 00:57:20;;;;;;;4.60;3.22;;;;;;;;;;4494844;28;20570;-58
2022/03/08 00:59:30;;;;;;;4.67;3.40;;;;;;;;;;4494116;28;20370;-58
2022/03/08 01:01:41;;;;;;;4.93;3.53;;;;;;;;;;4482895;28;20042;-58
2022/03/08 01:03:51;;;;;;;5.23;3.67;;;;;;;;;;4508896;28;20030;-58
2022/03/08 01:09:18;;;;;;;4.40;3.28;;;;;;;;;;4506896;28;20036;-58
2022/03/08 01:11:28;;;;;;;4.23;3.40;;;;;;;;;;4492911;28;20029;-58
2022/03/08 01:13:39;;;;;;;4.23;3.20;;;;;;;;;;4483370;28;20071;-58
2022/03/08 01:15:49;;;;;;;5.70;3.37;;;;;;;;;;4507093;28;20111;-58
2022/03/08 01:18:01;;;;;;;4.03;3.25;;;;;;;;;;4494103;28;20038;-58
2022/03/08 01:20:12;;;;;;;5.15;3.78;;;;;;;;;;4504682;28;20124;-58
2022/03/08 01:22:22;;;;;;;4.40;3.42;;;;;;;;;;4507283;28;20163;-58
2022/03/08 01:24:33;;;;;;;5.23;3.60;;;;;;;;;;4508532;28;20034;-59
2022/03/08 01:26:44;;;;;;;4.57;3.40;;;;;;;;;;4524200;28;20029;-58
2022/03/08 01:28:55;;;;;;;4.07;3.30;;;;;;;;;;4476060;28;20026;-58
2022/03/08 01:31:06;;;;;;;5.78;3.50;;;;;;;;;;4490384;28;20137;-58
2022/03/08 01:33:17;;;;;;;4.80;3.77;;;;;;;;;;4496259;28;20483;-58
2022/03/08 01:35:28;;;;;;;4.25;3.50;;;;;;;;;;4509521;28;20038;-58
2022/03/08 01:37:38;;;;;;;5.17;3.57;;;;;;;;;;4509264;28;20029;-59
2022/03/08 01:39:49;;;;;;;5.00;3.60;;;;;;;;;;4477759;28;20030;-58
2022/03/08 01:42:11;;;;;;;5.25;3.67;;;;;;;;;;4523903;28;20049;-58
2022/03/08 01:44:23;;;;;;;5.75;3.70;;;;;;;;;;4507726;28;20018;-58
2022/03/08 01:46:35;;;;;;;4.07;3.20;;;;;;;;;;4507476;28;20034;-58
2022/03/08 01:48:46;;;;;;;4.22;3.30;;;;;;;;;;4524006;28;20025;-58
2022/03/08 01:50:57;;;;;;;4.73;3.50;;;;;;;;;;4493396;28;20593;-58
2022/03/08 01:53:08;;;;;;;5.33;3.63;;;;;;;;;;4507505;28;20030;-58
2022/03/08 01:55:19;;;;;;;5.03;3.40;;;;;;;;;;4494117;28;20097;-58
2022/03/08 01:57:29;;;;;;;4.87;3.13;;;;;;;;;;4523447;28;20264;-58
2022/03/08 01:59:41;;;;;;;5.90;3.37;;;;;;;;;;4508695;28;20022;-59
2022/03/08 02:01:51;;;;;;;4.88;3.30;;;;;;;;;;4508207;28;20034;-58
2022/03/08 02:04:02;;;;;;;4.27;3.30;;;;;;;;;;4497426;28;20487;-58
2022/03/08 02:06:12;;;;;;;4.40;3.20;;;;;;;;;;4499291;28;20528;-58
2022/03/08 02:08:23;;;;;;;4.47;3.23;;;;;;;;;;4491790;28;20018;-58
2022/03/08 02:10:33;;;;;;;4.23;3.37;;;;;;;;;;4489872;28;25523;-58
2022/03/08 02:12:44;;;;;;;4.30;3.13;;;;;;;;;;4522290;28;20137;-58
2022/03/08 02:14:54;;;;;;;4.80;3.50;;;;;;;;;;4505084;28;20125;-58
2022/03/08 02:17:06;;;;;;;3.87;3.13;;;;;;;;;;4506769;28;20456;-59
2022/03/08 02:19:17;;;;;;;3.47;2.60;;;;;;;;;;4508292;28;20049;-59
2022/03/08 02:21:28;;;;;;;3.90;2.80;;;;;;;;;;4493617;28;20525;-58
2022/03/08 02:23:39;;;;;;;3.80;2.88;;;;;;;;;;4507103;28;20030;-58
2022/03/08 02:25:49;;;;;;;4.37;3.10;;;;;;;;;;4521588;28;20050;-58
2022/03/08 02:28:00;;;;;;;4.20;2.87;;;;;;;;;;4505594;28;20512;-60
2022/03/08 02:30:11;;;;;;;4.23;3.03;;;;;;;;;;4507437;28;20021;-58
2022/03/08 02:32:23;;;;;;;4.50;3.45;;;;;;;;;;4508742;28;21436;-58
2022/03/08 02:34:33;;;;;;;4.88;3.28;;;;;;;;;;4510763;28;20037;-58
2022/03/08 02:37:08;;;;;;;4.10;2.90;;;;;;;;;;4508883;28;20112;-58
2022/03/08 02:39:19;;;;;;;4.18;2.90;;;;;;;;;;4510457;28;20140;-58
2022/03/08 02:41:29;;;;;;;3.73;2.77;;;;;;;;;;4511187;28;20046;-58
2022/03/08 02:43:40;;;;;;;4.47;3.20;;;;;;;;;;4510104;28;20018;-58
2022/03/08 02:45:50;;;;;;;4.40;3.30;;;;;;;;;;4511669;28;26690;-58
2022/03/08 02:48:00;;;;;;;3.87;2.97;;;;;;;;;;4510095;28;30910;-58
2022/03/08 02:50:13;;;;;;;3.90;3.10;;;;;;;;;;4511435;28;20442;-58
2022/03/08 02:52:23;;;;;;;4.13;2.85;;;;;;;;;;4490445;28;20069;-58
2022/03/08 02:54:34;;;;;;;3.20;2.60;;;;;;;;;;4511051;28;20088;-58
2022/03/08 02:56:44;;;;;;;4.40;2.80;;;;;;;;;;4494233;28;20022;-58
2022/03/08 02:58:55;;;;;;;4.43;2.90;;;;;;;;;;4509993;28;22561;-58
2022/03/08 03:01:05;;;;;;;3.93;2.63;;;;;;;;;;4508629;28;24168;-58
2022/03/08 03:03:16;;;;;;;3.70;3.03;;;;;;;;;;4497772;28;20026;-58
2022/03/08 03:05:27;;;;;;;3.90;2.97;;;;;;;;;;4510268;28;20030;-58
2022/03/08 03:07:37;;;;;;;3.20;2.70;;;;;;;;;;4509824;28;20072;-58
2022/03/08 03:09:50;;;;;;;4.03;2.80;;;;;;;;;;4507673;28;20482;-58
2022/03/08 03:12:00;;;;;;;3.90;3.15;;;;;;;;;;4508246;28;20034;-58
2022/03/08 03:14:11;;;;;;;3.43;2.77;;;;;;;;;;4509939;28;20402;-59
2022/03/08 03:16:21;;;;;;;3.40;2.77;;;;;;;;;;4508242;28;20133;-58
2022/03/08 03:18:32;;;;;;;4.30;3.13;;;;;;;;;;4507892;28;36053;-58
2022/03/08 03:20:42;;;;;;;3.00;2.70;;;;;;;;;;4508777;28;20037;-58
2022/03/08 03:22:53;;;;;;;4.03;3.20;;;;;;;;;;4507877;28;20018;-58
2022/03/08 03:25:04;;;;;;;4.60;2.88;;;;;;;;;;4509938;28;20022;-58
2022/03/08 03:27:15;;;;;;;3.88;2.90;;;;;;;;;;4509867;28;20029;-58
2022/03/08 03:29:25;;;;;;;3.47;2.80;;;;;;;;;;4509399;28;20026;-58
2022/03/08 03:31:35;;;;;;;4.10;2.80;;;;;;;;;;4509425;28;20021;-58
2022/03/08 03:33:46;;;;;;;3.30;2.73;;;;;;;;;;4492089;28;20030;-58
2022/03/08 03:35:56;;;;;;;3.77;2.70;;;;;;;;;;4508115;28;20028;-58
2022/03/08 03:38:07;;;;;;;3.57;2.73;;;;;;;;;;4508402;28;20061;-58
2022/03/08 03:40:17;;;;;;;3.20;2.87;;;;;;;;;;4508700;28;24681;-58
2022/03/08 03:42:28;;;;;;;3.40;2.90;;;;;;;;;;4508472;28;20077;-58
2022/03/08 03:44:38;;;;;;;3.07;2.67;;;;;;;;;;4509360;28;20029;-58
2022/03/08 03:46:49;;;;;;;4.80;3.10;;;;;;;;;;4510741;28;20025;-58
2022/03/08 03:48:59;;;;;;;3.23;2.80;;;;;;;;;;4510255;28;20022;-58
2022/03/08 03:51:11;;;;;;;3.70;2.90;;;;;;;;;;4508796;28;21270;-58
2022/03/08 03:53:21;;;;;;;;;;;;;;;;;;4497774;28;20129;-58
2022/03/08 03:55:31;;;;;;;3.30;2.80;;;;;;;;;;4515791;28;19913;-58
2022/03/08 03:57:42;;;;;;;3.77;3.00;;;;;;;;;;4509078;28;43783;-58
2022/03/08 03:59:52;;;;;;;4.00;2.97;;;;;;;;;;4509708;28;20033;-58
2022/03/08 04:02:03;;;;;;;3.93;2.90;;;;;;;;;;4510204;28;20033;-59
2022/03/08 04:04:13;;;;;;;4.67;2.90;;;;;;;;;;4508940;28;20030;-58
2022/03/08 04:06:24;;;;;;;3.50;2.70;;;;;;;;;;4484645;28;20486;-58
2022/03/08 04:08:35;;;;;;;5.33;2.77;;;;;;;;;;4494616;28;28720;-58
2022/03/08 04:10:49;;;;;;;4.10;2.80;;;;;;;;;;4516353;28;20034;-59
2022/03/08 04:13:00;;;;;;;4.35;2.85;;;;;;;;;;4507692;28;20320;-58
2022/03/08 04:15:11;;;;;;;3.53;2.80;;;;;;;;;;4508517;28;27977;-58
2022/03/08 04:17:22;;;;;;;3.05;2.75;;;;;;;;;;4498217;28;20022;-58
2022/03/08 04:19:32;;;;;;;4.20;3.00;;;;;;;;;;4508099;28;20033;-58
2022/03/08 04:21:42;;;;;;;3.70;2.93;;;;;;;;;;4508236;28;20051;-58
2022/03/08 04:23:53;;;;;;;4.63;3.30;;;;;;;;;;4508389;28;20081;-58
2022/03/08 04:26:04;;;;;;;3.13;2.67;;;;;;;;;;4491471;28;20621;-58
2022/03/08 04:28:14;;;;;;;4.30;3.23;;;;;;;;;;4508693;28;20021;-58
2022/03/08 04:30:25;;;;;;;4.60;3.07;;;;;;;;;;4508046;28;30349;-58
2022/03/08 04:32:35;;;;;;;5.23;3.40;;;;;;;;;;4508607;28;20358;-58
2022/03/08 04:34:46;;;;;;;4.07;3.13;;;;;;;;;;4508653;28;20695;-58
2022/03/08 04:36:56;;;;;;;4.87;3.27;;;;;;;;;;4508757;28;20489;-58
2022/03/08 04:39:07;;;;;;;4.73;3.13;;;;;;;;;;4492618;28;20034;-59
2022/03/08 04:41:17;;;;;;;3.43;2.93;;;;;;;;;;4508090;28;20033;-58
2022/03/08 04:43:29;;;;;;;;;;;;;;;;;;4508142;28;20125;-58
2022/03/08 04:45:39;;;;;;;4.95;3.10;;;;;;;;;;4508251;28;20400;-58
2022/03/08 04:47:50;;;;;;;4.80;3.00;;;;;;;;;;4506513;28;27873;-58
2022/03/08 04:50:00;;;;;;;4.57;3.10;;;;;;;;;;4508390;28;32072;-58
2022/03/08 04:52:10;;;;;;;3.90;3.10;;;;;;;;;;4507366;28;20108;-58
2022/03/08 04:54:21;;;;;;;4.47;3.30;;;;;;;;;;4506019;28;38747;-58
2022/03/08 04:56:31;;;;;;;5.20;3.60;;;;;;;;;;4508337;28;20673;-59
2022/03/08 04:58:42;;;;;;;3.40;2.73;;;;;;;;;;4491404;28;20034;-58
2022/03/08 05:00:52;;;;;;;4.43;3.33;;;;;;;;;;4507518;28;20046;-58
2022/03/08 05:03:03;;;;;;;3.40;2.80;;;;;;;;;;4524131;28;20057;-58
2022/03/08 05:05:14;;;;;;;4.23;3.03;;;;;;;;;;4521527;28;20588;-59
2022/03/08 05:07:25;;;;;;;3.40;2.75;;;;;;;;;;4493720;28;20066;-59
2022/03/08 05:09:36;;;;;;;3.63;3.03;;;;;;;;;;4508151;28;20113;-58
2022/03/08 05:11:46;;;;;;;5.13;3.50;;;;;;;;;;4508187;28;20018;-59
2022/03/08 05:13:56;;;;;;;4.20;3.40;;;;;;;;;;4507403;28;38987;-58
2022/03/08 05:16:07;;;;;;;3.90;3.33;;;;;;;;;;4507809;28;20033;-58
2022/03/08 05:18:18;;;;;;;5.03;3.03;;;;;;;;;;4506713;28;20044;-59
2022/03/08 05:20:28;;;;;;;4.57;3.20;;;;;;;;;;4508154;28;20158;-58
2022/03/08 05:22:39;;;;;;;4.03;3.20;;;;;;;;;;4508202;28;20022;-58
2022/03/08 05:24:49;;;;;;;3.77;2.80;;;;;;;;;;4507993;28;20048;-58
2022/03/08 05:27:00;;;;;;;4.30;3.00;;;;;;;;;;4492626;28;20034;-58
2022/03/08 05:29:10;;;;;;;3.23;2.70;;;;;;;;;;4508464;28;20414;-58
2022/03/08 05:31:21;;;;;;;4.73;3.10;;;;;;;;;;4493179;28;20700;-58
2022/03/08 05:33:31;;;;;;;3.77;2.90;;;;;;;;;;4507855;28;20025;-58
2022/03/08 05:35:41;;;;;;;3.47;2.93;;;;;;;;;;4506000;28;25722;-58
2022/03/08 05:37:52;;;;;;;4.47;2.90;;;;;;;;;;4492134;28;27538;-58
2022/03/08 05:40:05;;;;;;;4.93;3.20;;;;;;;;;;4505901;28;20034;-57
2022/03/08 05:42:15;;;;;;;4.97;2.65;;;;;;;;;;4506583;28;20601;-58
2022/03/08 05:44:26;;;;;;;3.80;2.93;;;;;;;;;;4506708;28;28469;-58
2022/03/08 05:46:36;;;;;;;4.03;2.80;;;;;;;;;;4506874;28;20030;-58
2022/03/08 05:48:47;;;;;;;3.37;2.80;;;;;;;;;;4506076;28;20025;-58
2022/03/08 05:50:57;;;;;;;3.37;2.80;;;;;;;;;;4508148;28;20029;-58
2022/03/08 05:53:07;;;;;;;3.30;2.70;;;;;;;;;;4508935;28;20028;-58
2022/03/08 05:55:18;;;;;;;4.43;3.13;;;;;;;;;;4507238;28;20117;-58
2022/03/08 05:57:28;;;;;;;3.23;2.80;;;;;;;;;;4474944;28;20038;-59
2022/03/08 05:59:39;;;;;;;4.00;2.90;;;;;;;;;;4506761;28;25292;-58
2022/03/08 06:01:49;;;;;;;4.67;3.30;;;;;;;;;;4508678;28;20908;-58
2022/03/08 06:03:59;;;;;;;4.20;3.20;;;;;;;;;;4506651;28;34492;-58
2022/03/08 06:06:11;;;;;;;4.17;3.03;;;;;;;;;;4498782;28;20038;-58
2022/03/08 06:08:21;;;;;;;;;;;;;;;;;;4499688;28;20027;-58
2022/03/08 06:10:33;;;;;;;4.20;3.20;;;;;;;;;;4509579;28;20370;-58
2022/03/08 06:12:44;;;;;;;3.47;2.90;;;;;;;;;;4509473;28;21058;-58
2022/03/08 06:14:54;;;;;;;4.28;2.90;;;;;;;;;;4510357;28;20676;-58
2022/03/08 06:17:06;;;;;;;3.80;2.80;;;;;;;;;;4510559;28;20017;-59
2022/03/08 06:19:17;;;;;;;3.88;2.78;;;;;;;;;;4509302;28;20033;-59
2022/03/08 06:21:27;;;;;;;3.77;3.10;;;;;;;;;;4510846;28;20045;-58
2022/03/08 06:23:38;;;;;;;4.43;3.37;;;;;;;;;;4508849;28;26382;-58
2022/03/08 06:25:48;;;;;;;5.20;2.90;;;;;;;;;;4508601;28;20100;-58
2022/03/08 06:27:59;;;;;;;4.00;3.20;;;;;;;;;;4492097;28;20026;-58
2022/03/08 06:30:10;;;;;;;3.95;2.92;;;;;;;;;;4493974;28;20058;-59
2022/03/08 06:32:21;;;;;;;4.47;3.00;;;;;;;;;;4509411;28;20030;-58
2022/03/08 06:34:31;;;;;;;3.90;2.90;;;;;;;;;;4508804;28;20030;-60
2022/03/08 06:36:42;;;;;;;3.77;2.80;;;;;;;;;;4498671;28;20069;-59
2022/03/08 06:38:52;;;;;;;3.47;2.97;;;;;;;;;;4493270;28;20329;-58
2022/03/08 06:41:03;;;;;;;3.67;2.97;;;;;;;;;;4509051;28;20525;-58
2022/03/08 06:43:13;;;;;;;3.43;2.53;;;;;;;;;;4492592;28;20026;-59
2022/03/08 06:45:24;;;;;;;3.40;2.73;;;;;;;;;;4507785;28;40833;-59
2022/03/08 06:47:36;;;;;;;3.93;2.67;;;;;;;;;;4507676;28;20022;-60
2022/03/08 06:49:46;;;;;;;3.15;2.63;;;;;;;;;;4500715;28;20034;-58
2022/03/08 06:51:57;;;;;;;3.57;2.90;;;;;;;;;;4508743;28;20030;-59
2022/03/08 06:54:08;;;;;;;3.57;2.73;;;;;;;;;;4510186;28;20022;-59
2022/03/08 06:56:18;;;;;;;3.78;2.92;;;;;;;;;;4524236;28;20029;-59
2022/03/08 06:58:29;;;;;;;3.73;3.00;;;;;;;;;;4508431;28;20025;-58
2022/03/08 07:00:40;;;;;;;3.43;3.03;;;;;;;;;;4507292;28;20569;-59
2022/03/08 07:02:50;;;;;;;4.10;2.90;;;;;;;;;;4491964;28;20507;-58
2022/03/08 07:05:02;;;;;;;3.83;2.90;;;;;;;;;;4508882;28;20019;-59
2022/03/08 07:07:13;;;;;;;3.92;2.80;;;;;;;;;;4509474;28;20077;-58
2022/03/08 07:09:24;;;;;;;4.43;3.25;;;;;;;;;;4478497;28;20031;-58
2022/03/08 07:11:36;;;;;;;4.20;3.00;;;;;;;;;;4493442;28;20022;-59
2022/03/08 07:13:46;;;;;;;;;;;;;;;;;;4509626;28;20029;-59
2022/03/08 07:15:57;;;;;;;3.72;2.90;;;;;;;;;;4509104;28;19910;-59
2022/03/08 07:18:08;;;;;;;3.67;2.70;;;;;;;;;;4494080;28;20121;-59
2022/03/08 07:20:19;;;;;;;3.35;2.95;;;;;;;;;;4508815;28;20129;-58
2022/03/08 07:22:32;;;;;;;3.88;3.00;;;;;;;;;;4493956;28;20750;-59
2022/03/08 07:24:43;;;;;;;3.33;2.85;;;;;;;;;;4492421;28;20034;-59
2022/03/08 07:26:53;;;;;;;3.22;2.78;;;;;;;;;;4490736;28;20830;-58
2022/03/08 07:29:04;;;;;;;3.93;2.83;;;;;;;;;;4509182;28;20080;-59
2022/03/08 07:31:14;;;;;;;4.63;3.10;;;;;;;;;;4479690;28;20114;-59
2022/03/08 07:33:25;;;;;;;4.40;3.00;;;;;;;;;;4508900;28;20026;-59
2022/03/08 07:35:36;;;;;;;3.73;2.90;;;;;;;;;;4509177;28;20068;-59
2022/03/08 07:37:46;;;;;;;5.20;3.27;;;;;;;;;;4524482;28;20026;-59
2022/03/08 07:39:56;;;;;;;3.30;3.00;;;;;;;;;;4496736;28;20038;-59
2022/03/08 07:42:07;;;;;;;3.17;2.77;;;;;;;;;;4508329;28;20030;-59
2022/03/08 07:44:17;;;;;;;4.40;3.00;;;;;;;;;;4507938;28;20030;-59
2022/03/08 07:46:28;;;;;;;3.40;2.90;;;;;;;;;;4495252;28;20402;-59
2022/03/08 07:48:38;;;;;;;4.97;3.40;;;;;;;;;;4507954;28;28926;-58
2022/03/08 07:50:49;;;;;;;4.87;3.60;;;;;;;;;;4508699;28;20034;-59
2022/03/08 07:52:59;;;;;;;4.87;3.60;;;;;;;;;;4508914;28;21242;-58
2022/03/08 07:55:10;;;;;;;4.73;3.40;;;;;;;;;;4508053;28;20045;-59
2022/03/08 07:57:20;;;;;;;4.27;3.27;;;;;;;;;;4507834;28;20443;-59
2022/03/08 07:59:31;;;;;;;5.73;3.70;;;;;;;;;;4491280;28;20026;-58
2022/03/08 08:01:42;;;;;;;5.30;3.70;;;;;;;;;;4522379;28;20056;-59
2022/03/08 08:03:52;;;;;;;5.20;3.90;;;;;;;;;;4498022;28;20113;-59
2022/03/08 08:06:03;;;;;;;5.87;4.00;;;;;;;;;;4493618;28;20058;-59
2022/03/08 08:08:13;;;;;;;4.90;3.57;;;;;;;;;;4500580;28;20053;-60
2022/03/08 08:10:24;;;;;;;4.53;3.27;;;;;;;;;;4491849;28;20142;-59
2022/03/08 08:12:34;;;;;;;4.63;3.77;;;;;;;;;;4508677;28;20906;-59
2022/03/08 08:14:45;;;;;;;4.37;3.43;;;;;;;;;;4495879;28;20037;-59
2022/03/08 08:16:55;;;;;;;3.80;3.00;;;;;;;;;;4509209;28;20025;-59
2022/03/08 08:19:06;;;;;;;5.13;3.87;;;;;;;;;;4508920;28;20044;-58
2022/03/08 08:21:16;;;;;;;4.47;3.23;;;;;;;;;;4498815;28;20046;-61
2022/03/08 08:23:27;;;;;;;3.63;3.10;;;;;;;;;;4523878;28;20116;-62
2022/03/08 08:25:38;;;;;;;5.10;3.67;;;;;;;;;;4492950;28;20057;-59
2022/03/08 08:27:48;;;;;;;4.67;3.70;;;;;;;;;;4508512;28;20029;-59
2022/03/08 08:29:59;;;;;;;3.43;3.13;;;;;;;;;;4523396;28;33376;-58
2022/03/08 08:32:10;;;;;;;4.50;3.40;;;;;;;;;;4508718;28;20038;-59
2022/03/08 08:34:20;;;;;;;4.03;3.30;;;;;;;;;;4522891;28;20474;-59
2022/03/08 08:36:31;;;;;;;4.77;3.67;;;;;;;;;;4507255;28;20306;-61
2022/03/08 08:38:41;;;;;;;4.70;3.50;;;;;;;;;;4522463;28;20097;-59
2022/03/08 08:40:52;;;;;;;5.87;3.70;;;;;;;;;;4522517;28;20127;-59
2022/03/08 08:43:03;;;;;;;4.73;3.33;;;;;;;;;;4507606;28;20065;-61
2022/03/08 08:45:14;;;;;;;4.70;3.45;;;;;;;;;;4507160;28;20030;-59
2022/03/08 08:47:25;;;;;;;4.63;3.30;;;;;;;;;;4508864;28;20999;-61
2022/03/08 08:49:35;;;;;;;5.77;3.73;;;;;;;;;;4507717;28;20398;-60
2022/03/08 08:51:46;;;;;;;5.23;3.50;;;;;;;;;;4508503;28;20276;-58
2022/03/08 08:53:56;;;;;;;3.87;3.20;;;;;;;;;;4507909;28;20033;-57
2022/03/08 08:56:07;;;;;;;5.03;3.50;;;;;;;;;;4494254;28;20070;-58
2022/03/08 08:58:17;;;;;;;4.43;3.10;;;;;;;;;;4506811;28;20033;-57
2022/03/08 09:00:28;;;;;;;5.07;3.27;;;;;;;;;;4506625;28;20149;-57
2022/03/08 09:02:42;;;;;;;4.03;3.20;;;;;;;;;;4505723;28;20397;-57
2022/03/08 09:04:52;;;;;;;4.30;3.20;;;;;;;;;;4492046;28;20131;-57
2022/03/08 09:07:03;;;;;;;3.77;3.07;;;;;;;;;;4508077;28;20028;-58
2022/03/08 09:09:15;;;;;;;4.53;3.13;;;;;;;;;;4506982;28;20548;-58
2022/03/08 09:11:25;;;;;;;3.55;3.00;;;;;;;;;;4507089;28;20030;-58
2022/03/08 09:13:36;;;;;;;4.33;3.13;;;;;;;;;;4507455;28;20385;-58
2022/03/08 09:15:47;;;;;;;3.37;2.67;;;;;;;;;;4507850;28;20025;-58
2022/03/08 09:17:57;;;;;;;3.47;2.70;;;;;;;;;;4508762;28;20041;-59
2022/03/08 09:20:08;;;;;;;3.27;2.97;;;;;;;;;;4507414;28;20945;-58
2022/03/08 09:22:19;;;;;;;4.13;3.08;;;;;;;;;;4488946;28;20070;-58
2022/03/08 09:24:29;;;;;;;3.30;2.90;;;;;;;;;;4506192;28;20466;-58
2022/03/08 09:26:40;;;;;;;4.07;2.73;;;;;;;;;;4487878;28;20582;-58
2022/03/08 09:28:50;;;;;;;4.70;3.40;;;;;;;;;;4506077;28;20022;-59
2022/03/08 09:31:01;;;;;;;4.73;3.30;;;;;;;;;;4506854;28;20553;-60
2022/03/08 09:33:11;;;;;;;3.10;2.60;;;;;;;;;;4507528;28;20028;-58
2022/03/08 09:35:22;;;;;;;3.60;2.87;;;;;;;;;;4506865;28;20486;-59
2022/03/08 09:37:33;;;;;;;3.22;2.80;;;;;;;;;;4507059;28;20625;-59
2022/03/08 09:39:43;;;;;;;3.23;2.70;;;;;;;;;;4506945;28;20034;-59
2022/03/08 09:41:55;;;;;;;3.00;2.50;;;;;;;;;;4506831;28;20046;-58
2022/03/08 09:44:11;;;;;;;3.55;2.53;;;;;;;;;;4505542;28;20041;-58
2022/03/08 09:46:21;;;;;;;4.05;2.63;;;;;;;;;;4492019;28;20116;-58
2022/03/08 09:48:32;;;;;;;3.90;2.70;;;;;;;;;;4492901;28;20101;-58
2022/03/08 09:50:43;;;;;;;3.40;2.50;;;;;;;;;;4508112;28;20033;-58
2022/03/08 09:52:56;;;;;;;3.47;2.60;;;;;;;;;;4490052;28;20030;-58
2022/03/08 09:55:11;;;;;;;4.13;2.70;;;;;;;;;;4492816;28;20126;-58
2022/03/08 09:57:23;;;;;;;3.50;2.58;;;;;;;;;;4506917;28;20023;-58
2022/03/08 09:59:33;;;;;;;4.05;2.72;;;;;;;;;;4507259;28;20025;-58
2022/03/08 10:01:45;;;;;;;3.27;2.63;;;;;;;;;;4506150;28;20048;-58
2022/03/08 10:03:55;;;;;;;2.90;2.40;;;;;;;;;;4506494;28;20697;-58
2022/03/08 10:06:08;;;;;;;3.27;2.47;;;;;;;;;;4507295;28;20177;-58
2022/03/08 10:08:22;;;;;;;2.15;1.83;;;;;;;;;;4506165;28;20782;-58
2022/03/08 10:10:32;;;;;;;3.78;2.33;;;;;;;;;;4492830;28;20566;-58
2022/03/08 10:12:55;;;;;;;3.87;2.47;;;;;;;;;;4506531;28;20437;-58
2022/03/08 10:15:24;;;;;;;3.83;2.60;;;;;;;;;;4506045;28;20033;-58
2022/03/08 10:17:39;;;;;;;3.13;2.20;;;;;;;;;;4507634;28;20655;-59
2022/03/08 10:19:49;;;;;;;3.63;2.28;;;;;;;;;;4497248;28;20035;-59
2022/03/08 10:22:00;;;;;;;4.33;2.40;;;;;;;;;;4488905;28;20462;-58
2022/03/08 10:24:17;;;;;;;3.60;2.20;;;;;;;;;;4508213;28;20106;-58
2022/03/08 10:26:28;;;;;;;2.55;2.10;;;;;;;;;;4480608;28;20027;-58
2022/03/08 10:28:47;;;;;;;3.60;2.20;;;;;;;;;;4491516;28;20026;-58
2022/03/08 10:30:57;;;;;;;3.25;2.30;;;;;;;;;;4491059;28;20034;-58
2022/03/08 10:33:07;;;;;;;3.83;2.07;;;;;;;;;;4507890;28;20409;-58
2022/03/08 10:35:22;;;;;;;4.67;2.20;;;;;;;;;;4491057;28;33990;-58
2022/03/08 10:37:38;;;;;;;2.58;2.10;;;;;;;;;;4499327;28;20129;-58
2022/03/08 10:39:54;;;;;;;3.65;2.30;;;;;;;;;;4498005;28;20113;-58
2022/03/08 10:42:04;;;;;;;2.80;2.05;;;;;;;;;;4488740;28;20046;-58
2022/03/08 10:44:16;;;;;;;3.33;2.00;;;;;;;;;;4489451;28;29432;-58
2022/03/08 10:46:27;;;;;;;2.80;2.08;;;;;;;;;;4507844;28;20120;-57
2022/03/08 10:48:38;;;;;;;3.13;2.33;;;;;;;;;;4507189;28;20561;-58
2022/03/08 10:50:51;;;;;;;2.10;1.90;;;;;;;;;;4498193;28;20037;-58
2022/03/08 10:53:05;;;;;;;2.60;2.00;;;;;;;;;;4507657;28;20084;-58
2022/03/08 10:55:18;;;;;;;2.83;1.90;;;;;;;;;;4479090;28;20038;-58
2022/03/08 10:57:35;;;;;;;3.95;2.40;;;;;;;;;;4510524;28;20941;-57
2022/03/08 10:59:56;;;;;;;3.22;2.00;;;;;;;;;;4496382;28;20030;-57
2022/03/08 11:02:24;;;;;;;3.60;1.90;;;;;;;;;;4508276;28;20049;-57
2022/03/08 11:04:35;;;;;;;2.85;2.20;;;;;;;;;;4510500;28;20030;-57
2022/03/08 11:06:47;;;;;;;3.57;2.30;;;;;;;;;;4512322;28;20025;-59
2022/03/08 11:08:58;;;;;;;3.45;2.20;;;;;;;;;;4499857;28;20033;-58
2022/03/08 11:11:08;;;;;;;2.73;1.90;;;;;;;;;;4509760;28;20040;-57
2022/03/08 11:13:19;;;;;;;2.80;2.00;;;;;;;;;;4509086;28;20060;-57
2022/03/08 11:15:32;;;;;;;3.83;2.30;;;;;;;;;;4510239;28;20030;-57
2022/03/08 11:17:45;;;;;;;2.58;2.00;;;;;;;;;;4509849;28;20037;-57
2022/03/08 11:19:56;;;;;;;1.83;1.45;;;;;;;;;;4492932;28;20018;-58
2022/03/08 11:22:07;;;;;;;2.65;2.05;;;;;;;;;;4491086;28;20042;-57
2022/03/08 11:24:18;;;;;;;2.70;1.70;;;;;;;;;;4495371;28;20027;-57
2022/03/08 11:26:29;;;;;;;2.08;1.58;;;;;;;;;;4508334;28;20977;-57
2022/03/08 11:28:41;;;;;;;2.53;1.60;;;;;;;;;;4509264;28;20053;-57
2022/03/08 11:30:54;;;;;;;1.90;1.60;;;;;;;;;;4508824;28;20746;-57
2022/03/08 11:33:21;;;;;;;2.15;1.73;;;;;;;;;;4479454;28;20027;-57
2022/03/08 11:35:58;;;;;;;2.03;1.50;;;;;;;;;;4501044;28;20037;-58
2022/03/08 11:38:13;;;;;;;2.00;1.40;;;;;;;;;;4495835;28;20754;-57
2022/03/08 11:40:24;;;;;;;2.60;1.52;;;;;;;;;;4508817;28;20351;-57
2022/03/08 11:42:37;;;;;;;2.90;1.80;;;;;;;;;;4494103;28;20025;-57
2022/03/08 11:45:03;;;;;;;2.67;1.63;;;;;;;;;;4509362;28;20065;-57
2022/03/08 11:47:14;;;;;;;3.08;1.80;;;;;;;;;;4509794;28;20560;-57
2022/03/08 11:49:38;;;;;;;2.17;1.58;;;;;;;;;;4513253;28;20030;-57
2022/03/08 11:52:09;;;;;;;1.90;1.60;;;;;;;;;;4509724;28;20014;-57
2022/03/08 11:54:28;;;;;;;1.60;1.40;;;;;;;;;;4509199;28;20762;-57
2022/03/08 11:56:47;;;;;;;2.42;1.60;;;;;;;;;;4510191;28;20663;-57
2022/03/08 11:59:08;;;;;;;2.22;1.70;;;;;;;;;;4493412;28;20643;-57
2022/03/08 12:01:28;;;;;;;2.60;1.70;;;;;;;;;;4524558;28;20049;-57
2022/03/08 12:03:39;;;;;;;2.10;1.58;;;;;;;;;;4523178;28;20130;-58
2022/03/08 12:06:03;;;;;;;2.38;1.58;;;;;;;;;;4500513;28;20077;-57
2022/03/08 12:08:27;;;;;;;1.63;1.30;;;;;;;;;;4496020;28;20077;-57
2022/03/08 12:10:43;;;;;;;2.17;1.40;;;;;;;;;;4508404;28;20501;-57
2022/03/08 12:12:54;;;;;;;1.98;1.48;;;;;;;;;;4510365;28;20024;-57
2022/03/08 12:15:05;;;;;;;2.25;1.50;;;;;;;;;;4494465;28;20030;-57
2022/03/08 12:17:19;;;;;;;1.58;1.15;;;;;;;;;;4507595;28;20025;-57
2022/03/08 12:19:39;;;;;;;1.70;1.30;;;;;;;;;;4508539;28;20025;-56
2022/03/08 12:21:54;;;;;;;1.17;1.08;;;;;;;;;;4490313;28;20090;-57
2022/03/08 12:24:08;;;;;;;1.52;1.10;;;;;;;;;;4507248;28;20022;-57
2022/03/08 12:26:38;;;;;;;1.88;1.23;;;;;;;;;;4523785;28;20596;-57
2022/03/08 12:29:20;;;;;;;1.63;1.10;;;;;;;;;;4509607;28;20033;-57
2022/03/08 12:31:31;;;;;;;1.10;1.00;;;;;;;;;;4509590;28;20088;-57
2022/03/08 12:34:40;;;;;;;1.60;1.00;;;;;;;;;;4509375;28;20096;-57
2022/03/08 12:37:02;;;;;;;1.95;1.17;;;;;;;;;;4462816;28;20446;-57
2022/03/08 12:39:47;;;;;;;2.60;1.30;;;;;;;;;;4463281;28;20774;-57
2022/03/08 12:41:58;;;;;;;1.65;1.00;;;;;;;;;;4462588;28;20063;-57
2022/03/08 12:44:09;;;;;;;2.30;1.30;;;;;;;;;;4457785;28;20705;-57
2022/03/08 12:46:19;;;;;;;2.33;1.23;;;;;;;;;;4462430;28;20357;-57
2022/03/08 12:48:30;;;;;;;2.13;1.30;;;;;;;;;;4444092;28;20054;-57
2022/03/08 12:51:07;;;;;;;3.23;1.30;;;;;;;;;;4462737;28;20102;-57
2022/03/08 12:53:25;;;;;;;1.95;1.15;;;;;;;;;;4459463;28;20149;-57
2022/03/08 12:55:39;;;;;;;1.88;1.30;;;;;;;;;;4446337;28;20192;-57
2022/03/08 12:57:52;;;;;;;1.40;1.10;;;;;;;;;;4446967;28;20059;-58
2022/03/08 13:00:03;;;;;;;2.22;1.00;;;;;;;;;;4446079;28;20035;-57
2022/03/08 13:02:14;;;;;;;1.45;1.10;;;;;;;;;;4450044;28;20054;-57
2022/03/08 13:04:24;;;;;;;1.10;1.00;;;;;;;;;;4462852;28;20523;-57
2022/03/08 13:06:35;;;;;;;1.63;1.27;;;;;;;;;;4467564;28;20030;-57
2022/03/08 13:08:47;;;;;;;1.83;1.27;;;;;;;;;;4507510;28;20026;-57
2022/03/08 13:11:00;;;;;;;2.15;1.10;;;;;;;;;;4491540;28;20033;-57
2022/03/08 13:13:12;;;;;;;1.45;1.10;;;;;;;;;;4498818;28;20034;-57
2022/03/08 13:15:24;;;;;;;1.58;1.20;;;;;;;;;;4509295;28;20734;-57